Chorlton cum Hardy, United Kingdom
Current Conditions -  °F | °C
As of 10:50 AM on Sunday 28 Dec 2014 (Local Time) from EGCC Reporting Station
Clear Clear  
Wind Chill: 34°   Ceiling: Unl
Heat Index: 34°   Visibility: 6mi
Dew Point: 32°   Wind: 2mph
Humidity: 93%   Direction: 100°E
Pressure: 30.5"   Gusts: NA
Location:  53.44°N, 2.26°W
Report Text: EGCC 281050Z 10002KT CAVOK 01/00 Q1033
Loading
Personal Weather Stations






























Interactive Weather Map New forecast layout! Learn more

10-Day Weather Forecast

Advertisements
Track Severe Weather on mobile